createdAt,value
2018-05-04T00:01:09.362Z,63.72
2018-05-04T00:03:38.477Z,63.22
2018-05-04T00:06:07.486Z,63.74
2018-05-04T00:08:35.729Z,63.48
2018-05-04T00:11:03.969Z,63.57
2018-05-04T00:13:32.224Z,63.99
2018-05-04T00:16:00.453Z,63.16
2018-05-04T00:18:28.711Z,62.70
2018-05-04T00:20:56.956Z,63.46
2018-05-04T00:23:25.229Z,62.13
2018-05-04T00:25:53.516Z,62.35
2018-05-04T00:28:21.734Z,61.63
2018-05-04T00:30:50.752Z,62.34
2018-05-04T00:33:19.745Z,61.90
2018-05-04T00:35:47.987Z,62.37
2018-05-04T00:38:16.225Z,62.19
2018-05-04T00:40:44.469Z,61.56
2018-05-04T00:43:12.716Z,62.10
2018-05-04T00:45:40.950Z,62.53
2018-05-04T00:48:09.210Z,62.42
2018-05-04T00:50:37.465Z,62.52
2018-05-04T00:53:06.462Z,62.25
2018-05-04T00:55:35.478Z,62.01
2018-05-04T00:58:03.709Z,62.32
2018-05-04T01:00:32.743Z,62.52
2018-05-04T01:03:00.981Z,62.37
2018-05-04T01:05:29.989Z,62.26
2018-05-04T01:07:58.986Z,61.78
2018-05-04T01:10:27.234Z,62.32
2018-05-04T01:12:55.466Z,61.96
2018-05-04T01:15:23.817Z,61.98
2018-05-04T01:17:52.822Z,61.85
2018-05-04T01:20:21.051Z,61.91
2018-05-04T01:22:49.299Z,61.69
2018-05-04T01:25:17.537Z,62.18
2018-05-04T01:27:45.782Z,62.42
2018-05-04T01:30:14.390Z,62.11
2018-05-04T01:32:43.395Z,61.70
2018-05-04T01:35:11.631Z,61.86
2018-05-04T01:37:40.134Z,62.38
2018-05-04T01:40:09.146Z,62.40
2018-05-04T01:42:37.390Z,62.71
2018-05-04T01:45:05.641Z,62.70
2018-05-04T01:47:33.878Z,61.36
2018-05-04T01:50:02.127Z,62.22
2018-05-04T01:52:31.141Z,62.34
2018-05-04T01:54:59.379Z,62.59
2018-05-04T01:57:27.686Z,62.68
2018-05-04T01:59:55.929Z,62.28
2018-05-04T02:02:24.177Z,62.45
2018-05-04T02:04:52.407Z,62.16
2018-05-04T02:07:21.425Z,61.21
2018-05-04T02:09:49.653Z,61.84
2018-05-04T02:12:17.906Z,61.96
2018-05-04T02:14:46.137Z,62.49
2018-05-04T02:17:14.381Z,62.95
2018-05-04T02:19:43.397Z,62.07
2018-05-04T02:22:11.631Z,62.43
2018-05-04T02:24:39.857Z,62.06
2018-05-04T02:27:08.101Z,62.67
2018-05-04T02:29:37.151Z,62.50
2018-05-04T02:32:05.397Z,61.08
2018-05-04T02:34:34.334Z,61.26
2018-05-04T02:37:02.581Z,61.60
2018-05-04T02:39:31.099Z,61.54
2018-05-04T02:41:59.322Z,61.10
2018-05-04T02:44:27.556Z,61.53
2018-05-04T02:46:55.804Z,61.75
2018-05-04T02:49:24.049Z,61.93
2018-05-04T02:51:52.294Z,62.28
2018-05-04T02:54:20.552Z,61.57
2018-05-04T02:56:48.771Z,62.22
2018-05-04T02:59:17.018Z,62.32
2018-05-04T03:01:45.253Z,62.64
2018-05-04T03:04:13.506Z,62.24
2018-05-04T03:06:41.741Z,62.71
2018-05-04T03:09:09.974Z,62.57
2018-05-04T03:11:38.319Z,61.70
2018-05-04T03:14:07.321Z,61.77
2018-05-04T03:16:35.569Z,61.95
2018-05-04T03:19:04.575Z,62.00
2018-05-04T03:21:33.585Z,62.38
2018-05-04T03:24:01.855Z,62.64
2018-05-04T03:26:30.106Z,62.68
2018-05-04T03:28:58.360Z,62.66
2018-05-04T03:31:26.589Z,62.90
2018-05-04T03:33:54.841Z,62.13
2018-05-04T03:36:23.837Z,62.21
2018-05-04T03:38:52.854Z,62.69
2018-05-04T03:41:21.085Z,62.88
2018-05-04T03:43:49.329Z,62.33
2018-05-04T03:46:17.565Z,62.66
2018-05-04T03:48:45.797Z,62.22
2018-05-04T03:51:14.049Z,63.39
2018-05-04T03:53:42.305Z,63.34
2018-05-04T03:56:10.549Z,63.17
2018-05-04T03:58:57.357Z,63.90
2018-05-04T04:01:44.592Z,63.60
2018-05-04T04:04:13.653Z,64.60
2018-05-04T04:06:41.886Z,64.85
2018-05-04T04:09:10.146Z,65.23
2018-05-04T04:11:38.402Z,65.25
2018-05-04T04:14:06.634Z,65.67
2018-05-04T04:16:34.877Z,65.44
2018-05-04T04:19:03.171Z,65.71
2018-05-04T04:21:31.434Z,65.77
2018-05-04T04:24:00.516Z,65.81
2018-05-04T04:26:28.762Z,65.98
2018-05-04T04:28:58.517Z,65.89
2018-05-04T04:31:26.774Z,66.10
2018-05-04T04:33:55.795Z,65.50
2018-05-04T04:36:24.030Z,65.88
2018-05-04T04:38:53.067Z,66.02
2018-05-04T04:41:21.288Z,66.22
2018-05-04T04:43:49.525Z,66.37
2018-05-04T04:46:17.793Z,66.42
2018-05-04T04:48:46.025Z,67.10
2018-05-04T04:51:15.034Z,66.74
2018-05-04T04:53:44.159Z,66.38
2018-05-04T04:56:12.431Z,66.28
2018-05-04T04:58:40.666Z,66.59
2018-05-04T05:01:09.674Z,66.45
2018-05-04T05:03:37.936Z,66.69
2018-05-04T05:06:06.193Z,65.74
2018-05-04T05:08:34.433Z,65.76
2018-05-04T05:11:02.982Z,66.66
2018-05-04T05:13:32.056Z,66.53
2018-05-04T05:16:00.228Z,66.96
2018-05-04T05:18:28.775Z,66.55
2018-05-04T05:20:57.011Z,67.45
2018-05-04T05:23:26.020Z,66.92
2018-05-04T05:25:54.271Z,67.21
2018-05-04T05:28:23.270Z,67.57
2018-05-04T05:30:52.277Z,67.68
2018-05-04T05:33:20.525Z,67.44
2018-05-04T05:35:49.524Z,66.98
2018-05-04T05:38:18.546Z,66.54
2018-05-04T05:40:46.782Z,67.13
2018-05-04T05:43:15.816Z,67.47
2018-05-04T05:45:44.062Z,67.38
2018-05-04T05:48:13.174Z,66.97
2018-05-04T05:50:41.422Z,66.40
2018-05-04T05:53:09.666Z,65.87
2018-05-04T05:55:37.922Z,65.75
2018-05-04T05:58:06.186Z,65.42
2018-05-04T06:00:35.266Z,65.75
2018-05-04T06:03:03.526Z,65.74
2018-05-04T06:05:32.526Z,65.16
2018-05-04T06:08:01.548Z,64.97
2018-05-04T06:10:29.788Z,64.46
2018-05-04T06:12:58.789Z,64.82
2018-05-04T06:15:27.819Z,64.77
2018-05-04T06:17:56.065Z,65.15
2018-05-04T06:20:25.087Z,65.64
2018-05-04T06:22:53.360Z,65.33
2018-05-04T06:25:21.585Z,64.89
2018-05-04T06:27:49.916Z,65.06
2018-05-04T06:30:18.162Z,65.06
2018-05-04T06:32:46.489Z,65.58
2018-05-04T06:35:14.662Z,64.97
2018-05-04T06:37:43.189Z,65.00
2018-05-04T06:40:12.197Z,65.05
2018-05-04T06:42:40.433Z,65.31
2018-05-04T06:45:08.685Z,65.50
2018-05-04T06:47:36.934Z,65.58
2018-05-04T06:50:05.171Z,65.65
2018-05-04T06:52:34.281Z,65.48
2018-05-04T06:55:03.295Z,65.13
2018-05-04T06:57:31.542Z,65.54
2018-05-04T07:00:00.549Z,65.21
2018-05-04T07:02:29.234Z,65.29
2018-05-04T07:04:57.482Z,65.63
2018-05-04T07:07:25.725Z,65.09
2018-05-04T07:09:53.983Z,64.19
2018-05-04T07:12:22.233Z,64.83
2018-05-04T07:14:51.245Z,64.39
2018-05-04T07:17:19.508Z,64.70
2018-05-04T07:19:47.734Z,64.88
2018-05-04T07:22:15.994Z,63.71
2018-05-04T07:24:44.230Z,64.33
2018-05-04T07:27:12.477Z,64.11
2018-05-04T07:29:40.722Z,63.47
2018-05-04T07:32:08.971Z,63.68
2018-05-04T07:34:37.206Z,63.65
2018-05-04T07:37:05.458Z,63.74
2018-05-04T07:39:33.697Z,64.14
2018-05-04T07:42:01.966Z,63.21
2018-05-04T07:44:30.229Z,63.81
2018-05-04T07:46:59.234Z,63.63
2018-05-04T07:49:27.486Z,63.89
2018-05-04T07:51:56.505Z,62.22
2018-05-04T07:54:24.745Z,62.88
2018-05-04T07:56:53.769Z,63.39
2018-05-04T07:59:22.786Z,63.44
2018-05-04T08:01:51.022Z,63.66
2018-05-04T08:04:20.028Z,63.16
2018-05-04T08:06:48.333Z,62.99
2018-05-04T08:09:16.575Z,62.74
2018-05-04T08:11:45.578Z,63.28
2018-05-04T08:14:13.833Z,64.52
2018-05-04T08:16:42.855Z,64.66
2018-05-04T08:19:11.097Z,64.60
2018-05-04T08:21:40.151Z,64.17
2018-05-04T08:24:08.370Z,65.08
2018-05-04T08:26:37.373Z,64.78
2018-05-04T08:29:06.396Z,64.14
2018-05-04T08:31:34.651Z,64.68
2018-05-04T08:34:03.660Z,64.42
2018-05-04T08:36:31.914Z,64.99
2018-05-04T08:39:00.913Z,64.97
2018-05-04T08:41:29.170Z,64.95
2018-05-04T08:43:58.198Z,64.54
2018-05-04T08:46:26.434Z,65.09
2018-05-04T08:48:55.445Z,65.27
2018-05-04T08:51:24.471Z,65.11
2018-05-04T08:53:52.709Z,65.00
2018-05-04T08:56:21.709Z,65.31
2018-05-04T08:58:50.734Z,65.10
2018-05-04T09:01:19.004Z,65.32
2018-05-04T09:03:47.233Z,64.19
2018-05-04T09:06:15.476Z,64.89
2018-05-04T09:08:43.717Z,65.58
2018-05-04T09:11:11.954Z,65.25
2018-05-04T09:13:40.198Z,65.47
2018-05-04T09:16:08.433Z,65.70
2018-05-04T09:18:36.709Z,65.79
2018-05-04T09:21:05.714Z,66.64
2018-05-04T09:23:33.979Z,65.78
2018-05-04T09:26:02.991Z,66.01
2018-05-04T09:28:31.242Z,66.29
2018-05-04T09:31:00.268Z,66.54
2018-05-04T09:33:28.501Z,66.52
2018-05-04T09:35:57.510Z,66.36
2018-05-04T09:38:25.745Z,66.75
2018-05-04T09:40:54.129Z,65.86
2018-05-04T09:43:22.387Z,66.05
2018-05-04T09:45:50.602Z,65.91
2018-05-04T09:48:19.628Z,66.54
2018-05-04T09:50:47.862Z,66.73
2018-05-04T09:53:16.869Z,66.92
2018-05-04T09:55:45.886Z,67.49
2018-05-04T09:58:14.125Z,67.56
2018-05-04T10:00:42.375Z,67.27
2018-05-04T10:03:10.622Z,67.33
2018-05-04T10:05:38.868Z,67.40
2018-05-04T10:08:07.886Z,67.36
2018-05-04T10:10:36.138Z,66.95
2018-05-04T10:13:05.142Z,67.62
2018-05-04T10:15:33.390Z,67.83
2018-05-04T10:18:02.403Z,67.48
2018-05-04T10:20:30.673Z,67.97
2018-05-04T10:22:59.675Z,67.43
2018-05-04T10:25:28.282Z,67.37
2018-05-04T10:27:56.509Z,67.11
2018-05-04T10:30:24.746Z,66.90
2018-05-04T10:32:52.998Z,66.49
2018-05-04T10:35:21.234Z,66.73
2018-05-04T10:37:50.256Z,66.16
2018-05-04T10:40:18.571Z,66.16
2018-05-04T10:42:46.809Z,67.03
2018-05-04T10:45:15.148Z,66.58
2018-05-04T10:47:44.092Z,66.76
2018-05-04T10:50:12.338Z,66.49
2018-05-04T10:52:41.337Z,66.55
2018-05-04T10:55:09.592Z,66.31
2018-05-04T10:57:38.604Z,66.52
2018-05-04T11:00:07.609Z,66.66
2018-05-04T11:02:35.865Z,66.36
2018-05-04T11:05:04.887Z,66.91
2018-05-04T11:07:33.141Z,66.36
2018-05-04T11:10:02.153Z,66.46
2018-05-04T11:12:30.401Z,66.22
2018-05-04T11:14:59.406Z,66.64
2018-05-04T11:17:27.662Z,66.71
2018-05-04T11:19:55.917Z,66.73
2018-05-04T11:22:24.169Z,66.60
2018-05-04T11:24:52.410Z,66.09
2018-05-04T11:27:20.649Z,65.76
2018-05-04T11:29:48.910Z,65.94
2018-05-04T11:32:17.153Z,65.99
2018-05-04T11:34:45.396Z,65.61
2018-05-04T11:37:14.427Z,65.59
2018-05-04T11:39:42.657Z,65.89
2018-05-04T11:42:11.697Z,66.12
2018-05-04T11:44:39.937Z,65.53
2018-05-04T11:47:08.941Z,65.89
2018-05-04T11:49:37.265Z,65.93
2018-05-04T11:52:06.209Z,65.97
2018-05-04T11:54:34.458Z,66.24
2018-05-04T11:57:02.703Z,65.88
2018-05-04T11:59:30.949Z,65.29
2018-05-04T12:01:59.206Z,65.00
2018-05-04T12:04:28.206Z,64.91
2018-05-04T12:06:56.458Z,65.50
2018-05-04T12:09:25.471Z,65.65
2018-05-04T12:11:54.491Z,65.40
2018-05-04T12:14:22.726Z,66.00
2018-05-04T12:16:51.754Z,65.89
2018-05-04T12:19:20.022Z,65.81
2018-05-04T12:21:48.261Z,65.35
2018-05-04T12:24:16.499Z,64.91
2018-05-04T12:26:44.750Z,64.91
2018-05-04T12:29:12.990Z,65.20
2018-05-04T12:31:41.235Z,64.88
2018-05-04T12:34:09.489Z,65.62
2018-05-04T12:36:37.724Z,65.57
2018-05-04T12:39:06.742Z,65.30
2018-05-04T12:41:35.001Z,65.56
2018-05-04T12:44:04.032Z,65.34
2018-05-04T12:46:32.268Z,65.44
2018-05-04T12:49:01.274Z,65.23
2018-05-04T12:51:29.647Z,64.88
2018-05-04T12:53:58.659Z,65.89
2018-05-04T12:56:26.929Z,65.11
2018-05-04T12:58:55.187Z,65.24
2018-05-04T13:01:24.183Z,64.71
2018-05-04T13:03:53.205Z,64.88
2018-05-04T13:06:21.471Z,63.33
2018-05-04T13:08:49.714Z,63.24
2018-05-04T13:11:17.950Z,63.71
2018-05-04T13:13:46.203Z,62.22
2018-05-04T13:16:14.438Z,62.46
2018-05-04T13:18:42.685Z,61.79
2018-05-04T13:21:11.121Z,61.93
2018-05-04T13:23:39.362Z,61.66
2018-05-04T13:26:07.593Z,60.40
2018-05-04T13:28:35.861Z,59.90
2018-05-04T13:31:04.094Z,59.73
2018-05-04T13:33:33.127Z,59.65
2018-05-04T13:36:01.409Z,59.80
2018-05-04T13:38:29.629Z,59.88
2018-05-04T13:40:57.890Z,59.95
2018-05-04T13:43:26.122Z,60.21
2018-05-04T13:45:54.366Z,60.36
2018-05-04T13:48:23.378Z,60.67
2018-05-04T13:50:52.484Z,60.31
2018-05-04T13:53:20.637Z,61.01
2018-05-04T13:55:49.654Z,61.20
2018-05-04T13:58:18.017Z,60.43
2018-05-04T14:00:47.037Z,60.39
2018-05-04T14:03:15.285Z,60.12
2018-05-04T14:05:44.306Z,60.51
2018-05-04T14:08:12.548Z,60.08
2018-05-04T14:10:41.582Z,60.30
2018-05-04T14:13:09.826Z,59.92
2018-05-04T14:15:38.830Z,59.46
2018-05-04T14:18:07.097Z,59.75
2018-05-04T14:20:35.330Z,60.05
2018-05-04T14:23:03.850Z,60.34
2018-05-04T14:25:32.851Z,59.14
2018-05-04T14:28:01.100Z,58.64
2018-05-04T14:30:29.350Z,58.96
2018-05-04T14:32:57.599Z,58.98
2018-05-04T14:35:25.830Z,59.54
2018-05-04T14:37:54.870Z,58.36
2018-05-04T14:40:23.113Z,58.36
2018-05-04T14:42:52.156Z,58.33
2018-05-04T14:45:20.390Z,57.71
2018-05-04T14:47:48.639Z,58.02
2018-05-04T14:50:17.247Z,57.69
2018-05-04T14:52:46.249Z,57.84
2018-05-04T14:55:14.486Z,58.33
2018-05-04T14:57:43.731Z,59.03
2018-05-04T15:00:11.986Z,59.49
2018-05-04T15:02:40.994Z,59.22
2018-05-04T15:05:09.383Z,59.19
2018-05-04T15:07:37.610Z,59.58
2018-05-04T15:10:06.630Z,60.01
2018-05-04T15:12:34.873Z,59.63
2018-05-04T15:15:03.355Z,59.60
2018-05-04T15:17:31.593Z,59.52
2018-05-04T15:19:59.833Z,59.65
2018-05-04T15:22:28.848Z,59.53
2018-05-04T15:24:57.111Z,59.54
2018-05-04T15:27:26.104Z,59.58
2018-05-04T15:29:54.349Z,59.92
2018-05-04T15:32:22.606Z,59.29
2018-05-04T15:34:50.886Z,59.19
2018-05-04T15:37:19.113Z,59.36
2018-05-04T15:39:47.356Z,59.56
2018-05-04T15:42:16.373Z,59.26
2018-05-04T15:44:44.631Z,59.36
2018-05-04T15:47:13.637Z,58.93
2018-05-04T15:49:41.898Z,59.17
2018-05-04T15:52:10.924Z,59.80
2018-05-04T15:54:39.206Z,60.12
2018-05-04T15:57:07.410Z,60.22
2018-05-04T15:59:35.653Z,60.47
2018-05-04T16:02:03.889Z,60.25
2018-05-04T16:04:32.922Z,59.98
2018-05-04T16:07:01.175Z,60.20
2018-05-04T16:09:30.181Z,59.98
2018-05-04T16:11:58.429Z,60.15
2018-05-04T16:14:27.746Z,60.31
2018-05-04T16:16:55.994Z,60.01
2018-05-04T16:19:24.233Z,59.78
2018-05-04T16:21:52.491Z,60.17
2018-05-04T16:24:20.729Z,59.98
2018-05-04T16:26:49.754Z,60.23
2018-05-04T16:29:18.321Z,59.58
2018-05-04T16:31:47.325Z,59.87
2018-05-04T16:34:15.561Z,60.57
2018-05-04T16:36:43.818Z,60.50
2018-05-04T16:39:12.245Z,60.66
2018-05-04T16:41:41.297Z,60.88
2018-05-04T16:44:09.486Z,60.28
2018-05-04T16:46:43.169Z,60.29
2018-05-04T16:49:16.981Z,60.22
2018-05-04T16:51:45.513Z,60.10
2018-05-04T16:54:13.753Z,60.24
2018-05-04T16:56:41.983Z,59.22
2018-05-04T16:59:10.230Z,58.49
2018-05-04T17:01:39.249Z,57.71
2018-05-04T17:04:07.482Z,57.96
2018-05-04T17:06:36.505Z,58.79
2018-05-04T17:09:04.789Z,59.47
2018-05-04T17:11:33.771Z,60.34
2018-05-04T17:14:02.061Z,60.47
2018-05-04T17:16:30.297Z,60.79
2018-05-04T17:18:59.311Z,60.37
2018-05-04T17:21:27.569Z,61.24
2018-05-04T17:23:56.571Z,61.02
2018-05-04T17:26:25.579Z,61.18
2018-05-04T17:28:53.845Z,61.29
2018-05-04T17:31:22.117Z,61.43
2018-05-04T17:33:51.122Z,61.97
2018-05-04T17:36:19.374Z,61.79
2018-05-04T17:38:48.389Z,62.13
2018-05-04T17:41:16.625Z,62.18
2018-05-04T17:43:44.881Z,62.43
2018-05-04T17:46:14.242Z,62.16
2018-05-04T17:48:42.478Z,62.19
2018-05-04T17:51:10.723Z,62.50
2018-05-04T17:53:39.177Z,62.55
2018-05-04T17:56:07.417Z,62.76
2018-05-04T17:58:35.749Z,63.06
2018-05-04T18:01:04.034Z,63.15
2018-05-04T18:03:32.604Z,63.06
2018-05-04T18:06:00.854Z,63.14
2018-05-04T18:08:29.857Z,63.30
2018-05-04T18:10:58.117Z,63.40
2018-05-04T18:13:27.142Z,63.14
2018-05-04T18:15:55.593Z,63.27
2018-05-04T18:18:24.615Z,63.56
2018-05-04T18:20:52.847Z,63.60
2018-05-04T18:23:21.885Z,63.86
2018-05-04T18:25:50.125Z,64.20
2018-05-04T18:28:19.148Z,64.33
2018-05-04T18:30:47.394Z,64.15
2018-05-04T18:33:16.414Z,64.42
2018-05-04T18:35:44.665Z,64.92
2018-05-04T18:38:13.677Z,64.93
2018-05-04T18:40:41.930Z,65.06
2018-05-04T18:43:10.943Z,65.12
2018-05-04T18:45:39.260Z,65.05
2018-05-04T18:48:07.508Z,65.20
2018-05-04T18:50:35.754Z,65.34
2018-05-04T18:53:04.771Z,65.36
2018-05-04T18:55:33.026Z,65.48
2018-05-04T18:58:02.035Z,65.40
2018-05-04T19:00:30.285Z,65.50
2018-05-04T19:03:04.622Z,65.83
2018-05-04T19:05:33.831Z,65.51
2018-05-04T19:08:02.113Z,65.67
2018-05-04T19:10:30.297Z,65.54
2018-05-04T19:12:58.545Z,65.72
2018-05-04T19:15:26.793Z,65.63
2018-05-04T19:17:55.050Z,65.79
2018-05-04T19:20:23.299Z,65.83
2018-05-04T19:22:51.559Z,65.76
2018-05-04T19:25:19.795Z,66.07
2018-05-04T19:27:48.041Z,66.03
2018-05-04T19:30:16.288Z,65.97
2018-05-04T19:32:44.550Z,65.95
2018-05-04T19:35:12.794Z,66.04
2018-05-04T19:37:41.052Z,66.17
2018-05-04T19:40:09.301Z,66.36
2018-05-04T19:42:37.541Z,66.55
2018-05-04T19:45:06.557Z,66.09
2018-05-04T19:47:34.806Z,66.62
2018-05-04T19:50:03.825Z,66.50
2018-05-04T19:52:32.104Z,66.87
2018-05-04T19:55:00.316Z,67.00
2018-05-04T19:57:28.563Z,67.39
2018-05-04T19:59:56.829Z,67.09
2018-05-04T20:02:25.087Z,67.17
2018-05-04T20:04:54.113Z,67.20
2018-05-04T20:07:22.389Z,67.32
2018-05-04T20:09:50.618Z,67.37
2018-05-04T20:12:19.635Z,67.37
2018-05-04T20:14:48.132Z,67.35
2018-05-04T20:17:16.367Z,67.15
2018-05-04T20:19:45.373Z,67.10
2018-05-04T20:22:14.395Z,67.27
2018-05-04T20:24:42.638Z,67.43
2018-05-04T20:27:11.661Z,67.52
2018-05-04T20:29:39.897Z,67.76
2018-05-04T20:32:08.194Z,67.90
2018-05-04T20:34:36.466Z,68.30
2018-05-04T20:37:05.478Z,68.23
2018-05-04T20:39:33.783Z,68.36
2018-05-04T20:42:02.037Z,68.54
2018-05-04T20:44:30.302Z,68.58
2018-05-04T20:46:58.553Z,68.52
2018-05-04T20:49:27.568Z,68.65
2018-05-04T20:51:55.887Z,68.64
2018-05-04T20:54:24.822Z,68.34
2018-05-04T20:56:53.918Z,68.69
2018-05-04T20:59:23.045Z,68.80
2018-05-04T21:01:51.291Z,68.93
2018-05-04T21:04:20.381Z,68.82
2018-05-04T21:06:49.405Z,68.92
2018-05-04T21:09:17.637Z,68.85
2018-05-04T21:11:46.685Z,68.84
2018-05-04T21:14:14.924Z,69.05
2018-05-04T21:16:43.921Z,68.93
2018-05-04T21:19:12.180Z,69.03
2018-05-04T21:21:41.197Z,69.05
2018-05-04T21:24:09.440Z,69.24
2018-05-04T21:26:37.694Z,69.20
2018-05-04T21:29:05.963Z,69.50
2018-05-04T21:31:34.222Z,69.53
2018-05-04T21:34:02.469Z,69.30
2018-05-04T21:36:30.721Z,69.61
2018-05-04T21:41:35.074Z,69.33
2018-05-04T21:44:04.091Z,69.38
2018-05-04T21:46:32.329Z,69.52
2018-05-04T21:49:01.350Z,69.69
2018-05-04T21:51:29.596Z,69.62
2018-05-04T21:53:58.598Z,69.70
2018-05-04T21:56:27.627Z,69.87
2018-05-04T21:58:55.878Z,69.74
2018-05-04T22:01:24.136Z,69.82
2018-05-04T22:03:52.495Z,69.23
2018-05-04T22:06:20.771Z,69.65
2018-05-04T22:08:49.022Z,69.80
2018-05-04T22:11:17.289Z,69.76
2018-05-04T22:13:45.525Z,70.17
2018-05-04T22:16:14.534Z,70.32
2018-05-04T22:18:42.788Z,69.94
2018-05-04T22:21:11.794Z,70.02
2018-05-04T22:23:40.051Z,70.14
2018-05-04T22:26:09.066Z,69.84
2018-05-04T22:28:37.306Z,69.96
2018-05-04T22:31:05.553Z,70.03
2018-05-04T22:33:33.801Z,70.03
2018-05-04T22:36:02.046Z,70.00
2018-05-04T22:38:31.054Z,70.02
2018-05-04T22:41:00.071Z,70.30
2018-05-04T22:43:28.326Z,70.27
2018-05-04T22:45:56.586Z,70.10
2018-05-04T22:48:24.832Z,70.50
2018-05-04T22:50:53.080Z,70.54
2018-05-04T22:53:21.330Z,70.47
2018-05-04T22:55:50.333Z,70.52
2018-05-04T22:58:18.592Z,70.67
2018-05-04T23:00:47.597Z,70.31
2018-05-04T23:03:15.850Z,70.21
2018-05-04T23:05:44.857Z,70.29
2018-05-04T23:08:14.162Z,70.61
2018-05-04T23:10:42.404Z,70.63
2018-05-04T23:13:10.645Z,70.54
2018-05-04T23:15:38.899Z,70.67
2018-05-04T23:18:07.151Z,70.48
2018-05-04T23:20:36.158Z,70.46
2018-05-04T23:23:04.401Z,70.69
2018-05-04T23:25:32.650Z,70.66
2018-05-04T23:28:00.886Z,70.57
2018-05-04T23:30:29.905Z,70.60
2018-05-04T23:32:58.150Z,69.73
2018-05-04T23:35:27.153Z,69.66
2018-05-04T23:37:55.411Z,70.12
2018-05-04T23:40:24.418Z,70.39
2018-05-04T23:42:52.681Z,70.68
2018-05-04T23:45:21.689Z,70.57
2018-05-04T23:47:49.937Z,70.76
2018-05-04T23:50:19.100Z,70.86
2018-05-04T23:52:47.353Z,70.65
2018-05-04T23:55:15.592Z,70.85
2018-05-04T23:57:44.605Z,70.31
